Impacts TAF Board INFO
FOR SITUATIONAL AWARENESS. NOT TO BE USED FOR FLIGHT PLANNING PURPOSES.
IDs:

KIAD - Washington/Dulles In, VA, US

Issued at 2320 UTC 21 Jan 2018
Updated at 0017 UTC 22 Jan 2018
Potential Impact None Slight Moderate High
Time2352Z 22/01Z 22/02Z 22/03Z 22/04Z 22/05Z 22/06Z 22/07Z 22/08Z 22/09Z 22/10Z 22/11Z 22/12Z 22/13Z>>
Type OBS PRVL PRVL PRVL PRVL PRVL PRVL PRVL PRVL PRVL PRVL PRVL PRVL PRVL
VIS 10 >6 >6 >6 >6 >6 >6 >6 >6 >6 >6 >6 >6 >6
CIG -- 50 50 50 50 50 50 50 50 50 50 50 50 50
Cover SCT BKN BKN BKN BKN BKN BKN BKN BKN BKN BKN BKN BKN BKN
FltCat VFR VFR VFR VFR VFR VFR VFR VFR VFR VFR VFR VFR VFR VFR
WX -- -- -- -- -- -- -- -- -- -- -- -- -- --
WDir 160 VRB VRB VRB VRB VRB VRB VRB VRB VRB VRB VRB VRB VRB
WSpd 5 4 4 4 4 4 4 4 4 4 4 4 4 4
WGst -- -- -- -- -- -- -- -- -- -- -- -- -- --

Raw TAF
KIAD 212320Z 2200/2306 VRB04KT P6SM BKN050
  FM221500 19008KT P6SM BKN050 BKN200
  FM221800 19008G16KT P6SM BKN200
  FM230500 17008KT P6SM BKN015 OVC050


Raw METAR
KIAD 212352Z 16005KT 10SM SCT060 SCT080 12/05 A3013 RMK AO2 SLP204 T01220050 10172 20117 51002
KIAD 212252Z 13005KT 10SM SCT060 OVC080 14/06 A3012 RMK AO2 SLP202 T01390056
KIAD 212152Z 11003KT 10SM OVC055 14/06 A3013 RMK AO2 SLP204 T01440056

METAR Board
Radar Display
Forecast Discussion

FOR SITUATIONAL AWARENESS. NOT TO BE USED FOR FLIGHT PLANNING PURPOSES.